Share

Palau, PW

8:42 AM PWT on April 24, 2014 (GMT +0900)
Guam International (PGUM) Elev 269 ft | 13.48 °N, 144.80 °E | Change Station

Current weather conditions updated 48 minutes ago

Partly Cloudy
Partly Cloudy
85 °F
Feels Like 91 °F
N
12
Wind Variable Wind from East
Sunrise 5:49 AM
Sunset 6:10 PM
Moon Waning Crescent

Today is forecast to be Cooler than yesterday. Thunderstorms tonight.

Pressure 29.88 in
Visibility 10.0 miles
Clouds Few 2000 ft
Heat Index 91 °F
Dew Point 72 °F
Humidity 65%
Rainfall 0.00 in
Snow Depth Not available.
UV 7 out of 16
Pollen Not available.
Air Quality Not available.
Flu Activity
METAR PGUM 232254Z 09010KT 10SM FEW020 29/22 A2991 RMK AO2 SLP119 T02940222

More Conditions Fewer Conditions

Pressure 29.88 in
Visibility 10.0 miles
Clouds Few 2000 ft
Heat Index 91 °F
Dew Point 72 °F
Humidity 65%
Rainfall 0.00 in
Snow Depth Not available.
UV 7 out of 16
Pollen Not available.
Air Quality Not available.
Flu Activity
METAR PGUM 232254Z 09010KT 10SM FEW020 29/22 A2991 RMK AO2 SLP119 T02940222

More Conditions Fewer Conditions

10-Day Weather Forecast

Almanac

Astronomy

Apr. 24, 2014 Rise Set
Actual Time 5:49 AM PWT 6:10 PM PWT
Civil Twilight 5:28 AM PWT 6:31 PM PWT
Nautical Twilight 5:03 AM PWT 6:56 PM PWT
Astronomical Twilight 4:38 AM PWT 7:21 PM PWT
Moon 1:29 AM PWT (4/24) 1:45 PM PWT (4/24)
Length of Visible Light 13h 03m
Length of Day
12h 20m
Tomorrow will be 0m 23s longer.
Waning Crescent, 31% of the Moon is Illuminated
Apr 23
Waning Crescent
Apr 29
New
May 6
First Quarter
May 14
Full
May 21
Last Quarter

Community

  • Nestled In
    Nestled In
  • Stunning Sunrise
    Stunning Sunrise
  • spring flowers
    spring flowers
  • Earth Day Spectrum Ove' Blue
    Earth Day Spectrum Ove' Blue
  • BARN B&W
    BARN B&W

WunderPhotos

Upload Photos

1,704,452 photos uploaded!

WunderBlogs® & News

Nearby

Snow Depth

Station Depth Elevation
No new snow has been reported.

Coastal Water Temperatures

Place Temperature
No Stations Reporting

Earthquake Activity

City Distance Mag. Time & Date
No recent earthquake activity has been reported nearby.
Minimum magnitude displayed is 2.5.

Nearby Weather Stations

There are no personal weather stations in this area.

What do you think?

We're not finished. Please let us know what you like, what you don't like, and what you are still missing.